Flight Track Log - Related Links

Times and Time Zones

All times are in EDT time to prevent confusion due to time zone crossing. See the UAL3776 flight status page for this flight to view local times or setup timezone preferences in your user account.

Time Position Orientation Groundspeed Altitude Reporting Facility
EDT Latitude Longitude Course Direction KTS MPH feet Rate Location/Type
Sun 03:54:22 PM 38.9167 -77.5333 218° Southwest 223 257 2,400  Level Potomac TRACON
Sun 03:55:16 PM 38.8833 -77.6000 237° Southwest 263 303 5,000 2,400 Climbing Potomac TRACON
Sun 03:56:17 PM 38.8333 -77.6667 226° Southwest 282 325 7,000 1,953 Climbing Potomac TRACON
Sun 03:57:00 PM 38.5509 -77.6381 185° South  Level Estimated
Sun 03:58:00 PM 38.4538 -77.5870 158° South  Level FlightAware Approximate
Sun 03:58:05 PM 38.6939 -77.6317 169° South 275 316 10,500  Level Washington Center
Sun 03:59:00 PM 38.3556 -77.6344 218° Southwest  Level Estimated
Sun 03:59:05 PM 38.6025 -77.6133 171° South 308 354 13,300  Level Washington Center
Sun 04:00:05 PM 38.5069 -77.5922 170° South 333 383 15,600 2,350 Climbing Washington Center
Sun 04:01:05 PM 38.4092 -77.5736 172° South 347 399 18,000 2,200 Climbing Washington Center
Sun 04:02:05 PM 38.3269 -77.6269 207° Southwest 321 369 20,000 1,950 Climbing Washington Center
Sun 04:03:05 PM 38.2467 -77.6961 214° Southwest 326 375 21,900 1,000 Climbing Washington Center
Sun 04:04:05 PM 38.1639 -77.7731 216° Southwest 353 406 22,000 50 Climbing Washington Center
Sun 04:05:05 PM 38.0750 -77.8469 213° Southwest 375 432 22,000  Level Washington Center
Sun 04:06:05 PM 37.9944 -77.9106 212° Southwest 382 440 22,000  Level Washington Center
Sun 04:07:05 PM 37.9094 -77.9842 214° Southwest 377 434 22,000  Level Washington Center
Sun 04:08:05 PM 37.8225 -78.0550 213° Southwest 377 434 22,000 1,000 Level Washington Center
Sun 04:09:05 PM 37.7378 -78.1283 214° Southwest 377 434 24,000  Climbing Washington Center
Sun 04:10:05 PM 37.6569 -78.1992 215° Southwest 377 434 22,000 -1,000 Descending Washington Center
Sun 04:11:05 PM 37.5717 -78.2750 215° Southwest 372 428 22,000  Level Washington Center
Sun 04:12:05 PM 37.4761 -78.3528 213° Southwest 378 435 22,000  Level Washington Center
Sun 04:13:05 PM 37.3911 -78.4228 213° Southwest 378 435 22,000  Level Washington Center
Sun 04:14:05 PM 37.3039 -78.4953 213° Southwest 378 435 22,000  Level Washington Center
Sun 04:15:05 PM 37.2186 -78.5650 213° Southwest 378 435 22,000  Level Washington Center
Sun 04:16:05 PM 37.1333 -78.6372 214° Southwest 378 435 22,000  Level Washington Center
Sun 04:17:05 PM 37.0547 -78.6992 212° Southwest 378 435 22,000  Level Washington Center
Sun 04:18:05 PM 36.9692 -78.7711 214° Southwest 378 435 22,000 -500 Level Washington Center
Sun 04:19:05 PM 36.8839 -78.8406 213° Southwest 378 435 21,000 -1,450 Descending Washington Center
Sun 04:20:05 PM 36.8008 -78.9094 214° Southwest 378 435 19,100 -1,800 Descending Washington Center
Sun 04:21:05 PM 36.7131 -78.9836 214° Southwest 367 422 17,400 -1,600 Descending Washington Center
Sun 04:22:05 PM 36.6372 -79.0139 198° South 350 403 15,900 -1,837 Descending Washington Center
Sun 04:22:43 PM 36.5650 -78.9847 162° South 335 386 14,400 -1,800 Descending Washington Center
Sun 04:23:05 PM 36.5442 -78.9814 173° South 315 362 14,100 -1,770 Descending Washington Center
Sun 04:23:44 PM 36.4758 -78.9603 166° South 333 383 12,600 -1,800 Descending Washington Center
Sun 04:24:05 PM 36.4572 -78.9544 166° South 320 368 12,300 -1,700 Descending Washington Center
Sun 04:24:44 PM 36.3889 -78.9358 168° South 319 367 10,900 -1,900 Descending Washington Center
Sun 04:25:05 PM 36.3683 -78.9272 161° South 331 381 10,400 -787 Descending Washington Center
Sun 04:25:45 PM 36.3019 -78.9117 169° South 313 360 10,100 -300 Descending Washington Center
Sun 04:26:05 PM 36.2753 -78.9003 161° South 325 374 10,100 -90 Level Washington Center
Sun 04:26:52 PM 36.2047 -78.8792 166° South 315 362 10,000 -556 Descending Washington Center
Sun 04:27:53 PM 36.1303 -78.8606 169° South 274 315 9,100 -984 Descending Washington Center
Sun 04:28:54 PM 36.0536 -78.8447 171° South 265 305 8,000 -835 Descending Washington Center
Sun 04:29:48 PM 35.9847 -78.8444 180° South 267 307 7,500 -592 Descending Washington Center
Sun 04:30:05 PM 35.9783 -78.8467 196° South 271 312 7,300 -1,881 Descending Washington Center
Sun 04:30:55 PM 35.9183 -78.8981 215° Southwest 276 318 5,400 -1,838 Descending Washington Center
Sun 04:31:56 PM 35.8622 -78.9647 224° Southwest 259 298 3,900 -1,240 Descending Washington Center
Sun 04:32:56 PM 35.8150 -78.9425 159° South 204 235 2,900 -1,000 Descending Washington Center

Login

Don't have an account? Register now (free) for customized features, flight alerts, and more!